Time;durP1;ratioP1;P1;durP2;ratioP2;P2;SDS_P1;SDS_P2;PMS_P1;PMS_P2;Temp;Humidity;BMP_temperature;BMP_pressure;BME280_temperature;BME280_humidity;BME280_pressure;Samples;Min_cycle;Max_cycle;Signal;HPM_P1;HPM_P2
2023/09/06 00:00:49;;;;;;;11.02;6.75;;;;;;;-147.95;100.00;58458.38;5086373;28;20036;-83
2023/09/06 00:03:14;;;;;;;13.52;5.57;;;;;;;-147.95;100.00;58458.38;5068747;28;20399;-83
2023/09/06 00:05:41;;;;;;;9.07;5.72;;;;;;;-147.95;100.00;58458.38;5075825;28;20032;-82
2023/09/06 00:08:16;;;;;;;10.38;5.32;;;;;;;-147.95;100.00;58458.38;5088306;28;20071;-83
2023/09/06 00:10:46;;;;;;;14.20;5.68;;;;;;;-147.95;100.00;58458.38;5074152;28;20024;-82
2023/09/06 00:13:13;;;;;;;9.40;5.68;;;;;;;-147.95;100.00;58458.38;5086237;28;20110;-82
2023/09/06 00:15:39;;;;;;;18.88;6.20;;;;;;;-147.95;100.00;58458.38;5089851;28;20524;-82
2023/09/06 00:18:06;;;;;;;7.97;5.07;;;;;;;-147.95;100.00;58458.38;5088518;28;20028;-83
2023/09/06 00:20:38;;;;;;;11.23;5.07;;;;;;;-147.95;100.00;58458.38;5079782;28;20501;-83
2023/09/06 00:23:05;;;;;;;10.50;5.03;;;;;;;-147.95;100.00;58458.38;5079981;28;20079;-83
2023/09/06 00:25:32;;;;;;;8.63;4.65;;;;;;;-147.95;100.00;58458.38;5082777;28;20157;-83
2023/09/06 00:27:59;;;;;;;9.20;4.70;;;;;;;-147.95;100.00;58458.38;5084792;28;20104;-83
2023/09/06 00:30:25;;;;;;;9.57;4.85;;;;;;;-147.95;100.00;58458.38;5081509;28;20008;-83
2023/09/06 00:32:52;;;;;;;8.23;4.53;;;;;;;-147.95;100.00;58458.38;5068443;28;20051;-83
2023/09/06 00:35:19;;;;;;;14.25;4.95;;;;;;;-147.95;100.00;58458.38;5083605;28;20035;-83
2023/09/06 00:37:44;;;;;;;13.18;5.28;;;;;;;-147.95;100.00;58458.38;5085617;28;20035;-83
2023/09/06 00:40:18;;;;;;;6.45;4.80;;;;;;;-147.95;100.00;58458.38;5070955;28;20395;-83
2023/09/06 00:43:02;;;;;;;16.60;5.63;;;;;;;-147.95;100.00;58458.38;5087232;28;20127;-83
2023/09/06 00:45:37;;;;;;;21.63;5.13;;;;;;;-147.95;100.00;58458.38;5085126;28;20031;-83
2023/09/06 00:48:05;;;;;;;12.52;5.35;;;;;;;-147.95;100.00;58458.38;5076994;28;20037;-83
2023/09/06 00:50:30;;;;;;;8.15;4.65;;;;;;;-147.95;100.00;58458.38;5085101;28;20030;-83
2023/09/06 00:52:57;;;;;;;16.92;5.55;;;;;;;-147.95;100.00;58458.38;5083677;28;20028;-83
2023/09/06 00:55:23;;;;;;;12.27;5.22;;;;;;;-147.95;100.00;58458.38;5090141;28;20028;-84
2023/09/06 00:57:49;;;;;;;9.77;5.95;;;;;;;-147.95;100.00;58458.38;5087539;28;20406;-83
2023/09/06 01:00:17;;;;;;;14.75;5.72;;;;;;;-147.95;100.00;58458.38;5086653;28;20032;-83
2023/09/06 01:02:44;;;;;;;13.40;6.28;;;;;;;-147.95;100.00;58458.38;5053679;28;20148;-82
2023/09/06 01:05:10;;;;;;;11.88;6.13;;;;;;;-147.95;100.00;58458.38;5053702;28;20073;-83
2023/09/06 01:07:37;;;;;;;10.77;6.80;;;;;;;-147.95;100.00;58458.38;5084257;28;20043;-83
2023/09/06 01:10:06;;;;;;;11.18;6.45;;;;;;;-147.95;100.00;58458.38;5088239;28;20176;-83
2023/09/06 01:12:34;;;;;;;12.68;6.97;;;;;;;-147.95;100.00;58458.38;5087404;28;20028;-83
2023/09/06 01:15:01;;;;;;;10.50;6.80;;;;;;;-147.95;100.00;58458.38;5086755;28;20050;-83
2023/09/06 01:17:28;;;;;;;11.77;6.90;;;;;;;-147.95;100.00;58458.38;5086616;28;20059;-83
2023/09/06 01:20:04;;;;;;;12.52;6.35;;;;;;;-147.95;100.00;58458.38;5085015;28;20131;-83
2023/09/06 01:22:40;;;;;;;14.52;7.15;;;;;;;-147.95;100.00;58458.38;5080770;28;20030;-82
2023/09/06 01:25:08;;;;;;;15.40;7.03;;;;;;;-147.95;100.00;58458.38;5085783;28;20036;-83
2023/09/06 01:27:33;;;;;;;15.43;7.30;;;;;;;-147.95;100.00;58458.38;5084676;28;20073;-83
2023/09/06 01:29:59;;;;;;;13.27;6.55;;;;;;;-147.95;100.00;58458.38;5087302;28;20040;-83
2023/09/06 01:32:27;;;;;;;10.82;6.43;;;;;;;-147.95;100.00;58458.38;5086025;28;20073;-83
2023/09/06 01:34:54;;;;;;;8.93;6.30;;;;;;;-147.95;100.00;58458.38;5063856;28;20062;-83
2023/09/06 01:37:21;;;;;;;12.35;7.07;;;;;;;-147.95;100.00;58458.38;5085372;28;20055;-83
2023/09/06 01:39:48;;;;;;;12.80;6.43;;;;;;;-147.95;100.00;58458.38;5083559;28;20038;-78
2023/09/06 01:42:13;;;;;;;24.35;7.05;;;;;;;-147.95;100.00;58458.38;5085898;28;20040;-78
2023/09/06 01:44:38;;;;;;;8.02;5.70;;;;;;;-147.95;100.00;58458.38;5078041;28;20031;-78
2023/09/06 01:47:04;;;;;;;8.60;6.53;;;;;;;-147.95;100.00;58458.38;5080704;28;20594;-78
2023/09/06 01:49:29;;;;;;;10.55;7.18;;;;;;;-147.95;100.00;58458.38;5065474;28;20027;-78
2023/09/06 01:51:57;;;;;;;10.27;6.53;;;;;;;-147.95;100.00;58458.38;5085606;28;20028;-78
2023/09/06 01:54:23;;;;;;;12.63;6.80;;;;;;;-147.95;100.00;58458.38;5084296;28;20099;-78
2023/09/06 01:56:49;;;;;;;11.52;7.60;;;;;;;-147.95;100.00;58458.38;5085185;28;20585;-78
2023/09/06 01:59:14;;;;;;;14.07;8.10;;;;;;;-147.95;100.00;58458.38;5081428;28;20028;-77
2023/09/06 02:01:40;;;;;;;14.88;7.80;;;;;;;-147.95;100.00;58458.38;5080593;28;20037;-78
2023/09/06 02:04:06;;;;;;;11.02;7.85;;;;;;;-147.95;100.00;58458.38;5083119;28;20112;-78
2023/09/06 02:06:32;;;;;;;10.05;7.25;;;;;;;-147.95;100.00;58458.38;5088031;28;20032;-78
2023/09/06 02:08:58;;;;;;;14.68;6.82;;;;;;;-147.95;100.00;58458.38;5084530;28;20052;-78
2023/09/06 02:11:23;;;;;;;12.32;6.75;;;;;;;-147.95;100.00;58458.38;5083340;28;20074;-77
2023/09/06 02:13:50;;;;;;;17.98;6.80;;;;;;;-147.95;100.00;58458.38;5083988;28;20390;-78
2023/09/06 02:16:17;;;;;;;16.38;6.70;;;;;;;-147.95;100.00;58458.38;5060828;28;20589;-77
2023/09/06 02:18:42;;;;;;;9.80;6.40;;;;;;;-147.95;100.00;58458.38;5083797;28;20040;-78
2023/09/06 02:21:07;;;;;;;11.95;6.75;;;;;;;-147.95;100.00;58458.38;5081862;28;20077;-77
2023/09/06 02:23:34;;;;;;;17.42;6.80;;;;;;;-147.95;100.00;58458.38;5078524;28;20115;-78
2023/09/06 02:25:59;;;;;;;14.77;6.85;;;;;;;-147.95;100.00;58458.38;5085641;28;20068;-77
2023/09/06 02:28:24;;;;;;;12.10;6.70;;;;;;;-147.95;100.00;58458.38;5046895;28;20490;-77
2023/09/06 02:30:50;;;;;;;9.88;5.75;;;;;;;-147.95;100.00;58458.38;5075925;28;20089;-77
2023/09/06 02:33:15;;;;;;;10.48;5.90;;;;;;;-147.95;100.00;58458.38;5077442;28;20032;-77
2023/09/06 02:35:42;;;;;;;14.90;6.90;;;;;;;-147.95;100.00;58458.38;5088338;28;20051;-78
2023/09/06 02:38:12;;;;;;;15.20;7.20;;;;;;;-147.95;100.00;58458.38;5084842;28;20039;-78
2023/09/06 02:40:40;;;;;;;16.73;6.43;;;;;;;-147.95;100.00;58458.38;5071907;28;20032;-77
2023/09/06 02:43:06;;;;;;;13.90;6.78;;;;;;;-147.95;100.00;58458.38;5084395;28;20479;-78
2023/09/06 02:45:37;;;;;;;9.90;7.45;;;;;;;-147.95;100.00;58458.38;5087808;28;20035;-78
2023/09/06 02:48:07;;;;;;;15.25;7.45;;;;;;;-147.95;100.00;58458.38;5078378;28;20150;-78
2023/09/06 02:50:37;;;;;;;16.48;7.18;;;;;;;-147.95;100.00;58458.38;5082267;28;20043;-78
2023/09/06 02:53:03;;;;;;;9.00;6.97;;;;;;;-147.95;100.00;58458.38;5079689;28;20031;-78
2023/09/06 02:55:35;;;;;;;17.42;8.07;;;;;;;-147.95;100.00;58458.38;5085372;28;20034;-78
2023/09/06 02:58:01;;;;;;;10.73;7.07;;;;;;;-147.95;100.00;58458.38;5073766;28;20031;-78
2023/09/06 03:00:29;;;;;;;14.88;7.78;;;;;;;-147.95;100.00;58458.38;5081985;28;20032;-78
2023/09/06 03:03:05;;;;;;;13.43;7.45;;;;;;;-147.95;100.00;58458.38;5086166;28;20032;-78
2023/09/06 03:05:43;;;;;;;12.32;7.47;;;;;;;-147.95;100.00;58458.38;5086743;28;20039;-78
2023/09/06 03:08:10;;;;;;;15.05;7.82;;;;;;;-147.95;100.00;58458.38;5072078;28;20027;-78
2023/09/06 03:10:42;;;;;;;19.25;7.97;;;;;;;-147.95;100.00;58458.38;5069264;28;20032;-78
2023/09/06 03:13:10;;;;;;;17.95;8.32;;;;;;;-147.95;100.00;58458.38;5075520;28;20029;-77
2023/09/06 03:15:37;;;;;;;12.52;7.70;;;;;;;-147.95;100.00;58458.38;5091555;28;20032;-77
2023/09/06 03:18:05;;;;;;;15.60;8.68;;;;;;;-147.95;100.00;58458.38;5087708;28;20056;-78
2023/09/06 03:20:49;;;;;;;17.52;9.35;;;;;;;-147.95;100.00;58458.38;5085284;28;20031;-78
2023/09/06 03:23:18;;;;;;;15.75;9.40;;;;;;;-147.95;100.00;58458.38;5078728;28;20032;-78
2023/09/06 03:25:48;;;;;;;20.70;8.00;;;;;;;-147.95;100.00;58458.38;5087359;28;20036;-78
2023/09/06 03:28:15;;;;;;;16.20;8.85;;;;;;;-147.95;100.00;58458.38;5086898;28;20390;-77
2023/09/06 03:30:41;;;;;;;12.90;8.68;;;;;;;-147.95;100.00;58458.38;5072388;28;20793;-78
2023/09/06 03:33:07;;;;;;;18.33;10.13;;;;;;;-147.95;100.00;58458.38;5083871;28;20073;-78
2023/09/06 03:35:33;;;;;;;24.27;11.02;;;;;;;-147.95;100.00;58458.38;5089532;28;20032;-78
2023/09/06 03:38:10;;;;;;;17.58;9.55;;;;;;;-147.95;100.00;58458.38;5090042;28;20066;-78
2023/09/06 03:40:36;;;;;;;21.75;10.70;;;;;;;-147.95;100.00;58458.38;5086558;28;20028;-78
2023/09/06 03:43:15;;;;;;;19.85;10.57;;;;;;;-147.95;100.00;58458.38;5080616;28;20667;-77
2023/09/06 03:45:53;;;;;;;17.15;11.20;;;;;;;-147.95;100.00;58458.38;5085932;28;20094;-77
2023/09/06 03:48:23;;;;;;;17.65;11.02;;;;;;;-147.95;100.00;58458.38;5089320;28;20028;-77
2023/09/06 03:50:57;;;;;;;24.77;11.30;;;;;;;-147.95;100.00;58458.38;5090392;28;20036;-77
2023/09/06 03:53:25;;;;;;;18.65;10.75;;;;;;;-147.95;100.00;58458.38;5071433;28;20040;-78
2023/09/06 03:55:51;;;;;;;18.17;11.23;;;;;;;-147.95;100.00;58458.38;5084881;28;20028;-77
2023/09/06 03:58:17;;;;;;;29.25;11.60;;;;;;;-147.95;100.00;58458.38;5077041;28;20031;-78
2023/09/06 04:00:44;;;;;;;26.67;12.35;;;;;;;-147.95;100.00;58458.38;5086369;28;20044;-83
2023/09/06 04:03:11;;;;;;;29.45;10.20;;;;;;;-147.95;100.00;58458.38;5087483;28;20425;-83
2023/09/06 04:05:37;;;;;;;17.90;9.98;;;;;;;-147.95;100.00;58458.38;5086111;28;20427;-84
2023/09/06 04:08:09;;;;;;;21.63;10.73;;;;;;;-147.95;100.00;58458.38;5088742;28;20038;-84
2023/09/06 04:10:38;;;;;;;29.87;12.37;;;;;;;-147.95;100.00;58458.38;5089166;28;20431;-83
2023/09/06 04:13:09;;;;;;;26.73;10.95;;;;;;;-147.95;100.00;58458.38;5088379;28;20024;-83
2023/09/06 04:15:35;;;;;;;20.60;12.38;;;;;;;-147.95;100.00;58458.38;5067509;28;20028;-83
2023/09/06 04:18:02;;;;;;;23.88;12.30;;;;;;;-147.95;100.00;58458.38;5089387;28;20052;-83
2023/09/06 04:20:35;;;;;;;22.23;11.52;;;;;;;-147.95;100.00;58458.38;5083017;28;20089;-86
2023/09/06 04:23:01;;;;;;;42.83;13.73;;;;;;;-147.95;100.00;58458.38;5088717;28;20023;-86
2023/09/06 04:25:28;;;;;;;23.17;12.20;;;;;;;-147.95;100.00;58458.38;5062213;28;20078;-87
2023/09/06 04:27:55;;;;;;;20.20;10.93;;;;;;;-147.95;100.00;58458.38;5082359;28;20115;-86
2023/09/06 04:30:28;;;;;;;20.08;11.30;;;;;;;-147.95;100.00;58458.38;5083252;28;20053;-85
2023/09/06 04:32:59;;;;;;;25.42;11.77;;;;;;;-147.95;100.00;58458.38;5085296;28;20028;-87
2023/09/06 04:35:44;;;;;;;19.40;10.68;;;;;;;-147.95;100.00;58458.38;5083112;28;20502;-85
2023/09/06 04:38:11;;;;;;;20.77;11.43;;;;;;;-147.95;100.00;58458.38;5080075;28;20475;-84
2023/09/06 04:40:38;;;;;;;15.35;10.95;;;;;;;-147.95;100.00;58458.38;5080679;28;20486;-85
2023/09/06 04:43:04;;;;;;;18.70;11.10;;;;;;;-147.95;100.00;58458.38;5087454;28;20123;-84
2023/09/06 04:45:32;;;;;;;15.38;10.25;;;;;;;-147.95;100.00;58458.38;5088326;28;20044;-85
2023/09/06 04:47:57;;;;;;;15.27;10.50;;;;;;;-147.95;100.00;58458.38;5083437;28;20117;-83
2023/09/06 04:50:24;;;;;;;20.42;10.85;;;;;;;-147.95;100.00;58458.38;5068570;28;20103;-84
2023/09/06 04:52:53;;;;;;;14.73;10.57;;;;;;;-147.95;100.00;58458.38;5081344;28;20037;-84
2023/09/06 04:55:19;;;;;;;17.25;10.10;;;;;;;-147.95;100.00;58458.38;5082875;28;20021;-85
2023/09/06 04:57:47;;;;;;;23.10;9.90;;;;;;;-147.95;100.00;58458.38;5084415;28;20020;-84
2023/09/06 05:00:30;;;;;;;21.88;10.77;;;;;;;-147.95;100.00;58458.38;5084099;28;20032;-84
2023/09/06 05:02:57;;;;;;;19.70;11.18;;;;;;;-147.95;100.00;58458.38;5065568;28;20024;-84
2023/09/06 05:05:24;;;;;;;17.08;10.77;;;;;;;-147.95;100.00;58458.38;5085178;28;20054;-83
2023/09/06 05:07:51;;;;;;;21.77;12.02;;;;;;;-147.95;100.00;58458.38;5070375;28;20037;-83
2023/09/06 05:10:17;;;;;;;22.38;12.10;;;;;;;-147.95;100.00;58458.38;5086112;28;20020;-78
2023/09/06 05:12:44;;;;;;;23.33;13.50;;;;;;;-147.95;100.00;58458.38;5087208;28;20493;-78
2023/09/06 05:15:12;;;;;;;27.73;13.75;;;;;;;-147.95;100.00;58458.38;5083937;28;20486;-78
2023/09/06 05:17:38;;;;;;;31.75;13.02;;;;;;;-147.95;100.00;58458.38;5081080;28;20044;-79
2023/09/06 05:20:28;;;;;;;27.38;12.43;;;;;;;-147.95;100.00;58458.38;5099498;28;20043;-79
2023/09/06 05:22:56;;;;;;;24.40;10.95;;;;;;;-147.95;100.00;58458.38;5087129;28;20028;-78
2023/09/06 05:25:21;;;;;;;26.83;12.00;;;;;;;-147.95;100.00;58458.38;5080400;28;20032;-78
2023/09/06 05:27:47;;;;;;;13.52;10.75;;;;;;;-147.95;100.00;58458.38;5080258;28;20059;-79
2023/09/06 05:30:14;;;;;;;32.47;11.85;;;;;;;-147.95;100.00;58458.38;5081502;28;20091;-79
2023/09/06 05:32:39;;;;;;;19.52;11.18;;;;;;;-147.95;100.00;58458.38;5083018;28;20730;-78
2023/09/06 05:35:05;;;;;;;17.63;10.57;;;;;;;-147.95;100.00;58458.38;5089090;28;20032;-79
2023/09/06 05:37:30;;;;;;;23.90;11.48;;;;;;;-147.95;100.00;58458.38;5080761;28;20444;-79
2023/09/06 05:39:56;;;;;;;24.27;12.57;;;;;;;-147.95;100.00;58458.38;5088191;28;20032;-78
2023/09/06 05:42:21;;;;;;;17.73;11.20;;;;;;;-147.95;100.00;58458.38;5084333;28;20036;-78
2023/09/06 05:44:47;;;;;;;16.92;11.98;;;;;;;-147.95;100.00;58458.38;5071517;28;20063;-78
2023/09/06 05:47:12;;;;;;;18.30;11.18;;;;;;;-147.95;100.00;58458.38;5084509;28;20116;-78
2023/09/06 05:49:38;;;;;;;19.85;11.43;;;;;;;-147.95;100.00;58458.38;5086218;28;20039;-79
2023/09/06 05:52:03;;;;;;;16.27;10.70;;;;;;;-147.95;100.00;58458.38;5072231;28;20036;-78
2023/09/06 05:54:29;;;;;;;27.17;12.13;;;;;;;-147.95;100.00;58458.38;5067146;28;20505;-78
2023/09/06 05:56:58;;;;;;;18.42;11.65;;;;;;;-147.95;100.00;58458.38;5067183;28;20641;-78
2023/09/06 05:59:23;;;;;;;32.58;12.45;;;;;;;-147.95;100.00;58458.38;5087455;28;20111;-78
2023/09/06 06:01:49;;;;;;;18.95;10.80;;;;;;;-147.95;100.00;58458.38;5083422;28;20040;-79
2023/09/06 06:04:16;;;;;;;17.38;9.73;;;;;;;-147.95;100.00;58458.38;5086017;28;20028;-79
2023/09/06 06:06:41;;;;;;;13.25;9.38;;;;;;;-147.95;100.00;58458.38;5067314;28;20036;-78
2023/09/06 06:09:11;;;;;;;17.52;10.50;;;;;;;-147.95;100.00;58458.38;5085237;28;20112;-78
2023/09/06 06:11:37;;;;;;;19.33;10.52;;;;;;;-147.95;100.00;58458.38;5079628;28;20032;-78
2023/09/06 06:14:04;;;;;;;24.73;11.73;;;;;;;-147.95;100.00;58458.38;5082674;28;20028;-78
2023/09/06 06:16:30;;;;;;;16.02;10.95;;;;;;;-147.95;100.00;58458.38;5067889;28;20146;-78
2023/09/06 06:18:56;;;;;;;20.20;10.43;;;;;;;-147.95;100.00;58458.38;5083199;28;20487;-78
2023/09/06 06:21:24;;;;;;;21.63;13.07;;;;;;;-147.95;100.00;58458.38;5082593;28;20475;-83
2023/09/06 06:23:50;;;;;;;19.02;15.60;;;;;;;-147.95;100.00;58458.38;5084001;28;20084;-83
2023/09/06 06:26:19;;;;;;;26.20;16.55;;;;;;;-147.95;100.00;58458.38;5082812;28;20040;-83
2023/09/06 06:28:44;;;;;;;26.85;16.90;;;;;;;-147.95;100.00;58458.38;5077272;28;20088;-84
2023/09/06 06:31:10;;;;;;;26.85;15.93;;;;;;;-147.95;100.00;58458.38;5086389;28;20027;-84
2023/09/06 06:33:35;;;;;;;26.08;14.50;;;;;;;-147.95;100.00;58458.38;5081914;28;20031;-83
2023/09/06 06:36:01;;;;;;;28.20;15.38;;;;;;;-147.95;100.00;58458.38;5084081;28;20429;-83
2023/09/06 06:38:26;;;;;;;28.73;16.63;;;;;;;-147.95;100.00;58458.38;5085624;28;20032;-84
2023/09/06 06:40:52;;;;;;;20.42;15.32;;;;;;;-147.95;100.00;58458.38;5072486;28;20543;-84
2023/09/06 06:43:17;;;;;;;25.15;16.25;;;;;;;-147.95;100.00;58458.38;5055895;28;20709;-84
2023/09/06 06:45:51;;;;;;;29.58;18.48;;;;;;;-147.95;100.00;58458.38;5085190;28;20032;-84
2023/09/06 06:48:16;;;;;;;20.35;12.07;;;;;;;-147.95;100.00;58458.38;5088334;28;20024;-86
2023/09/06 06:50:43;;;;;;;23.45;10.00;;;;;;;-147.95;100.00;58458.38;5092568;28;20035;-85
2023/09/06 06:53:08;;;;;;;15.70;9.68;;;;;;;-147.95;100.00;58458.38;5072262;28;20024;-85
2023/09/06 06:55:34;;;;;;;21.63;9.48;;;;;;;-147.95;100.00;58458.38;5084456;28;20070;-85
2023/09/06 06:57:59;;;;;;;19.92;9.32;;;;;;;-147.95;100.00;58458.38;5066012;28;20513;-84
2023/09/06 07:00:24;;;;;;;22.63;9.10;;;;;;;-147.95;100.00;58458.38;5086067;28;20040;-85
2023/09/06 07:02:50;;;;;;;17.52;9.40;;;;;;;-147.95;100.00;58458.38;5087002;28;20414;-84
2023/09/06 07:05:16;;;;;;;16.73;9.43;;;;;;;-147.95;100.00;58458.38;5087168;28;20035;-85
2023/09/06 07:07:41;;;;;;;20.52;9.75;;;;;;;-147.95;100.00;58458.38;5073279;28;20074;-85
2023/09/06 07:10:07;;;;;;;22.70;9.48;;;;;;;-147.95;100.00;58458.38;5087384;28;20028;-84
2023/09/06 07:12:35;;;;;;;13.70;8.73;;;;;;;-147.95;100.00;58458.38;5085998;28;20048;-84
2023/09/06 07:15:02;;;;;;;24.42;10.52;;;;;;;-147.95;100.00;58458.38;5069499;28;20028;-85
2023/09/06 07:17:27;;;;;;;18.02;9.70;;;;;;;-147.95;100.00;58458.38;5084009;28;20053;-84
2023/09/06 07:19:53;;;;;;;23.35;9.10;;;;;;;-147.95;100.00;58458.38;5055250;28;20059;-87
2023/09/06 07:22:19;;;;;;;15.25;8.77;;;;;;;-147.95;100.00;58458.38;5067819;28;20096;-87
2023/09/06 07:24:45;;;;;;;15.60;9.05;;;;;;;-147.95;100.00;58458.38;5086759;28;20024;-87
2023/09/06 07:27:10;;;;;;;19.42;9.82;;;;;;;-147.95;100.00;58458.38;5090804;28;20089;-87
2023/09/06 07:29:36;;;;;;;23.15;10.35;;;;;;;-147.95;100.00;58458.38;5086376;28;20088;-79
2023/09/06 07:32:01;;;;;;;23.27;10.32;;;;;;;-147.95;100.00;58458.38;5075057;28;20394;-79
2023/09/06 07:34:26;;;;;;;20.10;9.57;;;;;;;-147.95;100.00;58458.38;5085488;28;20036;-79
2023/09/06 07:36:52;;;;;;;28.65;10.32;;;;;;;-147.95;100.00;58458.38;5070975;28;20037;-79
2023/09/06 07:39:17;;;;;;;12.57;7.43;;;;;;;-147.95;100.00;58458.38;5073133;28;20685;-80
2023/09/06 07:41:44;;;;;;;16.20;7.53;;;;;;;-147.95;100.00;58458.38;5072710;28;20037;-79
2023/09/06 07:44:09;;;;;;;15.32;7.30;;;;;;;-147.95;100.00;58458.38;5092222;28;20687;-79
2023/09/06 07:46:35;;;;;;;20.73;7.30;;;;;;;-147.95;100.00;58458.38;5080063;28;20074;-79
2023/09/06 07:49:00;;;;;;;19.20;6.78;;;;;;;-147.95;100.00;58458.38;5066548;28;20044;-79
2023/09/06 07:51:25;;;;;;;13.23;7.00;;;;;;;-147.95;100.00;58458.38;5085681;28;20077;-79
2023/09/06 07:53:51;;;;;;;22.98;7.47;;;;;;;-147.95;100.00;58458.38;5066978;28;20036;-81
2023/09/06 07:56:16;;;;;;;16.15;7.03;;;;;;;-147.95;100.00;58458.38;5076691;28;20032;-81
2023/09/06 07:58:42;;;;;;;13.15;6.25;;;;;;;-147.95;100.00;58458.38;5087088;28;20036;-81
2023/09/06 08:01:08;;;;;;;13.30;6.28;;;;;;;-147.95;100.00;58458.38;5092107;28;20115;-79
2023/09/06 08:03:33;;;;;;;9.88;5.68;;;;;;;-147.95;100.00;58458.38;5088497;28;20108;-79
2023/09/06 08:05:59;;;;;;;15.32;6.10;;;;;;;-147.95;100.00;58458.38;5090697;28;20401;-79
2023/09/06 08:08:26;;;;;;;18.75;5.22;;;;;;;-147.95;100.00;58458.38;5070371;28;20036;-79
2023/09/06 08:10:51;;;;;;;11.18;4.95;;;;;;;-147.95;100.00;58458.38;5090382;28;21371;-81
2023/09/06 08:13:17;;;;;;;14.15;5.70;;;;;;;-147.95;100.00;58458.38;5074483;28;20047;-81
2023/09/06 08:15:42;;;;;;;17.42;4.70;;;;;;;-147.95;100.00;58458.38;5063592;28;20031;-81
2023/09/06 08:18:08;;;;;;;7.38;5.10;;;;;;;-147.95;100.00;58458.38;5083419;28;20074;-81
2023/09/06 08:20:34;;;;;;;11.52;5.13;;;;;;;-147.95;100.00;58458.38;5066967;28;21707;-78
2023/09/06 08:22:59;;;;;;;18.38;5.60;;;;;;;-147.95;100.00;58458.38;5071691;28;20413;-79
2023/09/06 08:25:25;;;;;;;10.55;4.75;;;;;;;-147.95;100.00;58458.38;5091493;28;20391;-79
2023/09/06 08:27:51;;;;;;;9.38;5.22;;;;;;;-147.95;100.00;58458.38;5086355;28;20020;-80
2023/09/06 08:30:18;;;;;;;11.65;5.20;;;;;;;-147.95;100.00;58458.38;5090107;28;20035;-79
2023/09/06 08:32:45;;;;;;;12.18;7.75;;;;;;;-147.95;100.00;58458.38;5082797;28;20023;-79
2023/09/06 08:35:14;;;;;;;14.23;8.93;;;;;;;-147.95;100.00;58458.38;5090056;28;20016;-79
2023/09/06 08:37:40;;;;;;;15.50;7.47;;;;;;;-147.95;100.00;58458.38;5090505;28;20441;-79
2023/09/06 08:40:07;;;;;;;14.40;8.43;;;;;;;-147.95;100.00;58458.38;5086764;28;20044;-86
2023/09/06 08:42:36;;;;;;;12.40;7.53;;;;;;;-147.95;100.00;58458.38;5067340;28;20028;-86
2023/09/06 08:45:04;;;;;;;12.90;6.68;;;;;;;-147.95;100.00;58458.38;5087380;28;20490;-86
2023/09/06 08:47:32;;;;;;;13.95;6.82;;;;;;;-147.95;100.00;58458.38;5085640;28;20568;-87
2023/09/06 08:49:58;;;;;;;7.75;4.95;;;;;;;-147.95;100.00;58458.38;5086283;28;20082;-86
2023/09/06 08:52:24;;;;;;;10.90;5.57;;;;;;;-147.95;100.00;58458.38;5093501;28;20028;-88
2023/09/06 08:54:50;;;;;;;9.07;5.28;;;;;;;-147.95;100.00;58458.38;5089421;28;20486;-85
2023/09/06 08:57:18;;;;;;;9.95;4.95;;;;;;;-147.95;100.00;58458.38;5089560;28;20073;-86
2023/09/06 08:59:46;;;;;;;9.07;4.43;;;;;;;-147.95;100.00;58458.38;5086779;28;20115;-87
2023/09/06 09:02:18;;;;;;;8.73;4.18;;;;;;;-147.95;100.00;58458.38;5087313;28;20052;-86
2023/09/06 09:04:43;;;;;;;8.30;4.78;;;;;;;-147.95;100.00;58458.38;5089145;28;20031;-87
2023/09/06 09:07:10;;;;;;;11.35;5.57;;;;;;;-147.95;100.00;58458.38;5090144;28;20043;-87
2023/09/06 09:09:55;;;;;;;12.00;4.10;;;;;;;-147.95;100.00;58458.38;5089284;28;20089;-87
2023/09/06 09:12:30;;;;;;;6.30;3.88;;;;;;;-147.95;100.00;58458.38;5085581;28;20040;-87
2023/09/06 09:14:57;;;;;;;13.02;4.10;;;;;;;-147.95;100.00;58458.38;5085348;28;20078;-87
2023/09/06 09:17:25;;;;;;;6.45;4.30;;;;;;;-147.95;100.00;58458.38;5085393;28;20514;-87
2023/09/06 09:19:55;;;;;;;12.77;4.05;;;;;;;-147.95;100.00;58458.38;5071567;28;20139;-85
2023/09/06 09:22:40;;;;;;;9.00;4.20;;;;;;;-147.95;100.00;58458.38;5083155;28;20413;-87
2023/09/06 09:25:16;;;;;;;9.52;3.88;;;;;;;-147.95;100.00;58458.38;5086017;28;20083;-86
2023/09/06 09:27:45;;;;;;;8.98;4.22;;;;;;;-147.95;100.00;58458.38;5085319;28;20046;-86
2023/09/06 09:30:14;;;;;;;7.25;3.38;;;;;;;-147.95;100.00;58458.38;5085406;28;20028;-88
2023/09/06 09:32:40;;;;;;;7.50;3.60;;;;;;;-147.95;100.00;58458.38;5088171;28;20035;-87
2023/09/06 09:35:12;;;;;;;7.22;4.03;;;;;;;-147.95;100.00;58458.38;5088006;28;20079;-87
2023/09/06 09:37:41;;;;;;;12.10;4.90;;;;;;;-147.95;100.00;58458.38;5088415;28;20107;-88
2023/09/06 09:40:17;;;;;;;11.38;3.85;;;;;;;-147.95;100.00;58458.38;5084399;28;20035;-88
2023/09/06 09:42:56;;;;;;;6.68;3.42;;;;;;;-147.95;100.00;58458.38;5085835;28;20126;-87
2023/09/06 09:45:26;;;;;;;8.18;4.03;;;;;;;-147.95;100.00;58458.38;5085674;28;20375;-86
2023/09/06 09:47:56;;;;;;;12.48;4.10;;;;;;;-147.95;100.00;58458.38;5071590;28;20036;-87
2023/09/06 09:50:22;;;;;;;13.70;4.22;;;;;;;-147.95;100.00;58458.38;5088997;28;20142;-86
2023/09/06 09:52:48;;;;;;;6.85;3.70;;;;;;;-147.95;100.00;58458.38;5090236;28;20028;-88
2023/09/06 09:55:16;;;;;;;8.55;3.72;;;;;;;-147.95;100.00;58458.38;5088069;28;20028;-87
2023/09/06 09:57:55;;;;;;;5.88;3.75;;;;;;;-147.95;100.00;58458.38;5089744;28;20355;-87
2023/09/06 10:00:27;;;;;;;11.50;3.88;;;;;;;-147.95;100.00;58458.38;5086246;28;20036;-87
2023/09/06 10:02:57;;;;;;;8.88;3.40;;;;;;;-147.95;100.00;58458.38;5086300;28;20043;-88
2023/09/06 10:05:26;;;;;;;6.50;3.67;;;;;;;-147.95;100.00;58458.38;5085569;28;20046;-87
2023/09/06 10:07:54;;;;;;;19.10;4.07;;;;;;;-147.95;100.00;58458.38;5083326;28;20842;-87
2023/09/06 10:10:21;;;;;;;10.63;3.80;;;;;;;-147.95;100.00;58458.38;5086294;28;20459;-88
2023/09/06 10:12:50;;;;;;;9.38;4.20;;;;;;;-147.95;100.00;58458.38;5084275;28;20032;-87
2023/09/06 10:15:19;;;;;;;7.60;3.72;;;;;;;-147.95;100.00;58458.38;5083486;28;20398;-86
2023/09/06 10:17:47;;;;;;;12.52;4.10;;;;;;;-147.95;100.00;58458.38;5088808;28;20127;-87
2023/09/06 10:20:15;;;;;;;5.80;3.55;;;;;;;-147.95;100.00;58458.38;5094802;28;20073;-87
2023/09/06 10:22:46;;;;;;;10.25;4.03;;;;;;;-147.95;100.00;58458.38;5087695;28;20534;-86
2023/09/06 10:25:14;;;;;;;11.33;3.70;;;;;;;-147.95;100.00;58458.38;5068704;28;20386;-87
2023/09/06 10:27:50;;;;;;;10.50;3.53;;;;;;;-147.95;100.00;58458.38;5074673;28;20024;-86
2023/09/06 10:30:18;;;;;;;6.85;4.13;;;;;;;-147.95;100.00;58458.38;5085557;28;20025;-87
2023/09/06 10:32:46;;;;;;;14.88;4.05;;;;;;;-147.95;100.00;58458.38;5087897;28;20039;-86
2023/09/06 10:35:24;;;;;;;8.70;3.63;;;;;;;-147.95;100.00;58458.38;5073919;28;20107;-87
2023/09/06 10:38:15;;;;;;;8.38;3.80;;;;;;;-147.95;100.00;58458.38;5084923;28;20035;-89
2023/09/06 10:40:49;;;;;;;8.02;4.20;;;;;;;-147.95;100.00;58458.38;5076380;28;20494;-87
2023/09/06 10:43:29;;;;;;;7.57;3.42;;;;;;;-147.95;100.00;58458.38;5093450;28;20031;-87
2023/09/06 10:46:26;;;;;;;9.55;3.80;;;;;;;-147.95;100.00;58458.38;5092322;28;20077;-86
2023/09/06 10:49:17;;;;;;;7.50;3.25;;;;;;;-147.95;100.00;58458.38;5093616;28;20071;-86
2023/09/06 10:52:03;;;;;;;8.35;3.40;;;;;;;-147.95;100.00;58458.38;5089719;28;20028;-87
2023/09/06 10:54:40;;;;;;;7.72;3.75;;;;;;;-147.95;100.00;58458.38;5089516;28;20020;-86
2023/09/06 10:57:11;;;;;;;10.60;3.95;;;;;;;-147.95;100.00;58458.38;5090884;28;20403;-87
2023/09/06 10:59:44;;;;;;;9.18;3.63;;;;;;;-147.95;100.00;58458.38;5088987;28;20025;-81
2023/09/06 11:02:18;;;;;;;7.00;3.72;;;;;;;-147.95;100.00;58458.38;5084553;28;20081;-80
2023/09/06 11:04:44;;;;;;;9.23;4.20;;;;;;;-147.95;100.00;58458.38;5087845;28;20032;-80
2023/09/06 11:07:10;;;;;;;9.48;3.85;;;;;;;-147.95;100.00;58458.38;5090896;28;20028;-80